sensor_id;sensor_type;location;lat;lon;timestamp;P1;durP1;ratioP1;P2;durP2;ratioP2
75429;SDS011;64127;51.488;5.462;2023-05-07T00:00:52;4.40;;;4.00;;
75429;SDS011;64127;51.488;5.462;2023-05-07T00:03:24;4.63;;;4.23;;
75429;SDS011;64127;51.488;5.462;2023-05-07T00:05:57;5.07;;;4.63;;
75429;SDS011;64127;51.488;5.462;2023-05-07T00:08:30;4.90;;;4.43;;
75429;SDS011;64127;51.488;5.462;2023-05-07T00:11:02;5.10;;;4.60;;
75429;SDS011;64127;51.488;5.462;2023-05-07T00:13:34;4.87;;;4.47;;
75429;SDS011;64127;51.488;5.462;2023-05-07T00:16:06;5.00;;;4.50;;
75429;SDS011;64127;51.488;5.462;2023-05-07T00:18:38;4.93;;;4.53;;
75429;SDS011;64127;51.488;5.462;2023-05-07T00:21:11;5.10;;;4.70;;
75429;SDS011;64127;51.488;5.462;2023-05-07T00:23:43;5.27;;;4.80;;
75429;SDS011;64127;51.488;5.462;2023-05-07T00:26:15;5.47;;;4.97;;
75429;SDS011;64127;51.488;5.462;2023-05-07T00:28:47;5.97;;;4.70;;
75429;SDS011;64127;51.488;5.462;2023-05-07T00:31:19;5.30;;;4.83;;
75429;SDS011;64127;51.488;5.462;2023-05-07T00:33:52;5.20;;;4.70;;
75429;SDS011;64127;51.488;5.462;2023-05-07T00:36:24;5.57;;;5.07;;
75429;SDS011;64127;51.488;5.462;2023-05-07T00:38:58;5.27;;;4.60;;
75429;SDS011;64127;51.488;5.462;2023-05-07T00:41:33;5.43;;;5.03;;
75429;SDS011;64127;51.488;5.462;2023-05-07T00:44:06;5.73;;;4.80;;
75429;SDS011;64127;51.488;5.462;2023-05-07T00:46:38;5.83;;;5.20;;
75429;SDS011;64127;51.488;5.462;2023-05-07T00:49:10;5.57;;;5.10;;
75429;SDS011;64127;51.488;5.462;2023-05-07T00:51:42;5.00;;;4.60;;
75429;SDS011;64127;51.488;5.462;2023-05-07T00:54:16;6.73;;;5.50;;
75429;SDS011;64127;51.488;5.462;2023-05-07T00:56:48;5.67;;;5.17;;
75429;SDS011;64127;51.488;5.462;2023-05-07T00:59:20;5.83;;;5.23;;
75429;SDS011;64127;51.488;5.462;2023-05-07T01:01:52;5.97;;;5.43;;
75429;SDS011;64127;51.488;5.462;2023-05-07T01:04:25;6.20;;;5.60;;
75429;SDS011;64127;51.488;5.462;2023-05-07T01:06:58;5.80;;;5.30;;
75429;SDS011;64127;51.488;5.462;2023-05-07T01:09:33;6.10;;;5.47;;
75429;SDS011;64127;51.488;5.462;2023-05-07T01:12:07;6.40;;;5.90;;
75429;SDS011;64127;51.488;5.462;2023-05-07T01:14:40;6.27;;;5.77;;
75429;SDS011;64127;51.488;5.462;2023-05-07T01:17:13;6.47;;;5.83;;
75429;SDS011;64127;51.488;5.462;2023-05-07T01:19:45;6.47;;;5.87;;
75429;SDS011;64127;51.488;5.462;2023-05-07T01:22:26;7.03;;;6.43;;
75429;SDS011;64127;51.488;5.462;2023-05-07T01:25:08;7.07;;;6.10;;
75429;SDS011;64127;51.488;5.462;2023-05-07T01:27:40;7.20;;;6.50;;
75429;SDS011;64127;51.488;5.462;2023-05-07T01:30:12;7.23;;;6.43;;
75429;SDS011;64127;51.488;5.462;2023-05-07T01:32:57;7.13;;;6.50;;
75429;SDS011;64127;51.488;5.462;2023-05-07T01:35:38;7.07;;;6.47;;
75429;SDS011;64127;51.488;5.462;2023-05-07T01:38:16;7.60;;;6.83;;
75429;SDS011;64127;51.488;5.462;2023-05-07T01:40:50;7.97;;;7.37;;
75429;SDS011;64127;51.488;5.462;2023-05-07T01:43:22;8.70;;;7.83;;
75429;SDS011;64127;51.488;5.462;2023-05-07T01:45:54;9.87;;;7.93;;
75429;SDS011;64127;51.488;5.462;2023-05-07T01:48:28;8.13;;;7.53;;
75429;SDS011;64127;51.488;5.462;2023-05-07T01:51:01;8.47;;;7.77;;
75429;SDS011;64127;51.488;5.462;2023-05-07T01:53:37;8.37;;;7.67;;
75429;SDS011;64127;51.488;5.462;2023-05-07T01:56:10;9.47;;;8.50;;
75429;SDS011;64127;51.488;5.462;2023-05-07T01:58:42;9.13;;;8.23;;
75429;SDS011;64127;51.488;5.462;2023-05-07T02:01:16;9.27;;;8.03;;
75429;SDS011;64127;51.488;5.462;2023-05-07T02:03:48;9.47;;;8.57;;
75429;SDS011;64127;51.488;5.462;2023-05-07T02:06:21;9.87;;;8.90;;
75429;SDS011;64127;51.488;5.462;2023-05-07T02:08:53;9.43;;;8.50;;
75429;SDS011;64127;51.488;5.462;2023-05-07T02:11:25;9.87;;;8.97;;
75429;SDS011;64127;51.488;5.462;2023-05-07T02:13:57;10.37;;;9.47;;
75429;SDS011;64127;51.488;5.462;2023-05-07T02:16:28;10.93;;;9.93;;
75429;SDS011;64127;51.488;5.462;2023-05-07T02:19:00;10.30;;;9.40;;
75429;SDS011;64127;51.488;5.462;2023-05-07T02:21:33;10.47;;;9.43;;
75429;SDS011;64127;51.488;5.462;2023-05-07T02:24:05;10.97;;;10.07;;
75429;SDS011;64127;51.488;5.462;2023-05-07T02:26:37;11.43;;;10.23;;
75429;SDS011;64127;51.488;5.462;2023-05-07T02:29:09;11.20;;;10.20;;
75429;SDS011;64127;51.488;5.462;2023-05-07T02:31:41;11.43;;;10.43;;
75429;SDS011;64127;51.488;5.462;2023-05-07T02:34:13;12.03;;;11.03;;
75429;SDS011;64127;51.488;5.462;2023-05-07T02:36:45;12.00;;;10.97;;
75429;SDS011;64127;51.488;5.462;2023-05-07T02:39:17;12.50;;;11.30;;
75429;SDS011;64127;51.488;5.462;2023-05-07T02:41:49;13.17;;;11.90;;
75429;SDS011;64127;51.488;5.462;2023-05-07T02:44:21;13.30;;;12.20;;
75429;SDS011;64127;51.488;5.462;2023-05-07T02:46:53;12.93;;;11.87;;
75429;SDS011;64127;51.488;5.462;2023-05-07T02:49:25;13.03;;;11.93;;
75429;SDS011;64127;51.488;5.462;2023-05-07T02:51:57;13.30;;;12.20;;
75429;SDS011;64127;51.488;5.462;2023-05-07T02:54:29;13.63;;;12.43;;
75429;SDS011;64127;51.488;5.462;2023-05-07T02:57:01;14.10;;;12.77;;
75429;SDS011;64127;51.488;5.462;2023-05-07T02:59:33;14.73;;;13.37;;
75429;SDS011;64127;51.488;5.462;2023-05-07T03:02:05;14.03;;;12.83;;
75429;SDS011;64127;51.488;5.462;2023-05-07T03:04:37;14.77;;;13.47;;
75429;SDS011;64127;51.488;5.462;2023-05-07T03:07:12;15.10;;;13.80;;
75429;SDS011;64127;51.488;5.462;2023-05-07T03:09:44;15.10;;;13.77;;
75429;SDS011;64127;51.488;5.462;2023-05-07T03:12:16;15.30;;;14.00;;
75429;SDS011;64127;51.488;5.462;2023-05-07T03:14:48;15.63;;;14.23;;
75429;SDS011;64127;51.488;5.462;2023-05-07T03:17:20;15.87;;;14.57;;
75429;SDS011;64127;51.488;5.462;2023-05-07T03:19:52;16.00;;;14.53;;
75429;SDS011;64127;51.488;5.462;2023-05-07T03:22:24;16.63;;;15.17;;
75429;SDS011;64127;51.488;5.462;2023-05-07T03:24:57;17.03;;;15.53;;
75429;SDS011;64127;51.488;5.462;2023-05-07T03:27:29;17.73;;;16.13;;
75429;SDS011;64127;51.488;5.462;2023-05-07T03:30:01;17.60;;;16.03;;
75429;SDS011;64127;51.488;5.462;2023-05-07T03:32:33;17.37;;;15.83;;
75429;SDS011;64127;51.488;5.462;2023-05-07T03:35:06;18.40;;;16.80;;
75429;SDS011;64127;51.488;5.462;2023-05-07T03:37:38;17.83;;;16.23;;
75429;SDS011;64127;51.488;5.462;2023-05-07T03:40:11;18.43;;;16.73;;
75429;SDS011;64127;51.488;5.462;2023-05-07T03:42:44;18.30;;;16.70;;
75429;SDS011;64127;51.488;5.462;2023-05-07T03:45:16;18.27;;;16.57;;
75429;SDS011;64127;51.488;5.462;2023-05-07T03:47:48;19.30;;;17.60;;
75429;SDS011;64127;51.488;5.462;2023-05-07T03:50:20;18.80;;;16.87;;
75429;SDS011;64127;51.488;5.462;2023-05-07T03:52:52;19.10;;;17.40;;
75429;SDS011;64127;51.488;5.462;2023-05-07T03:55:24;19.40;;;17.60;;
75429;SDS011;64127;51.488;5.462;2023-05-07T03:57:56;19.77;;;18.07;;
75429;SDS011;64127;51.488;5.462;2023-05-07T04:00:28;19.17;;;17.53;;
75429;SDS011;64127;51.488;5.462;2023-05-07T04:03:04;20.35;;;18.55;;
75429;SDS011;64127;51.488;5.462;2023-05-07T04:05:37;20.23;;;18.40;;
75429;SDS011;64127;51.488;5.462;2023-05-07T04:08:09;20.50;;;18.80;;
75429;SDS011;64127;51.488;5.462;2023-05-07T04:10:41;20.37;;;18.47;;
75429;SDS011;64127;51.488;5.462;2023-05-07T04:13:13;21.87;;;19.80;;
75429;SDS011;64127;51.488;5.462;2023-05-07T04:15:45;19.60;;;18.00;;
75429;SDS011;64127;51.488;5.462;2023-05-07T04:18:17;20.77;;;18.97;;
75429;SDS011;64127;51.488;5.462;2023-05-07T04:20:49;20.80;;;19.10;;
75429;SDS011;64127;51.488;5.462;2023-05-07T04:23:21;20.57;;;18.53;;
75429;SDS011;64127;51.488;5.462;2023-05-07T04:25:53;19.67;;;18.07;;
75429;SDS011;64127;51.488;5.462;2023-05-07T04:28:26;20.03;;;18.33;;
75429;SDS011;64127;51.488;5.462;2023-05-07T04:30:58;20.10;;;18.20;;
75429;SDS011;64127;51.488;5.462;2023-05-07T04:33:30;19.50;;;17.80;;
75429;SDS011;64127;51.488;5.462;2023-05-07T04:36:02;19.90;;;18.20;;
75429;SDS011;64127;51.488;5.462;2023-05-07T04:38:35;20.57;;;18.70;;
75429;SDS011;64127;51.488;5.462;2023-05-07T04:41:08;20.20;;;18.47;;
75429;SDS011;64127;51.488;5.462;2023-05-07T04:43:40;20.00;;;18.10;;
75429;SDS011;64127;51.488;5.462;2023-05-07T04:46:12;19.40;;;17.30;;
75429;SDS011;64127;51.488;5.462;2023-05-07T04:48:45;19.73;;;18.03;;
75429;SDS011;64127;51.488;5.462;2023-05-07T04:51:17;20.10;;;18.27;;
75429;SDS011;64127;51.488;5.462;2023-05-07T04:53:49;18.87;;;17.23;;
75429;SDS011;64127;51.488;5.462;2023-05-07T04:56:21;19.60;;;17.93;;
75429;SDS011;64127;51.488;5.462;2023-05-07T04:58:53;19.87;;;18.17;;
75429;SDS011;64127;51.488;5.462;2023-05-07T05:01:25;20.20;;;18.33;;
75429;SDS011;64127;51.488;5.462;2023-05-07T05:03:57;19.30;;;17.60;;
75429;SDS011;64127;51.488;5.462;2023-05-07T05:06:31;20.07;;;18.37;;
75429;SDS011;64127;51.488;5.462;2023-05-07T05:09:03;20.33;;;18.53;;
75429;SDS011;64127;51.488;5.462;2023-05-07T05:11:36;19.63;;;17.93;;
75429;SDS011;64127;51.488;5.462;2023-05-07T05:14:08;19.70;;;17.97;;
75429;SDS011;64127;51.488;5.462;2023-05-07T05:16:40;19.83;;;18.03;;
75429;SDS011;64127;51.488;5.462;2023-05-07T05:19:12;19.37;;;17.67;;
75429;SDS011;64127;51.488;5.462;2023-05-07T05:21:44;19.97;;;17.97;;
75429;SDS011;64127;51.488;5.462;2023-05-07T05:24:16;18.60;;;17.00;;
75429;SDS011;64127;51.488;5.462;2023-05-07T05:26:49;18.97;;;17.37;;
75429;SDS011;64127;51.488;5.462;2023-05-07T05:29:21;19.17;;;17.40;;
75429;SDS011;64127;51.488;5.462;2023-05-07T05:31:53;20.03;;;18.23;;
75429;SDS011;64127;51.488;5.462;2023-05-07T05:34:25;19.33;;;17.73;;
75429;SDS011;64127;51.488;5.462;2023-05-07T05:36:57;18.33;;;16.83;;
75429;SDS011;64127;51.488;5.462;2023-05-07T05:39:30;18.77;;;17.17;;
75429;SDS011;64127;51.488;5.462;2023-05-07T05:42:02;18.63;;;17.13;;
75429;SDS011;64127;51.488;5.462;2023-05-07T05:44:35;19.23;;;17.47;;
75429;SDS011;64127;51.488;5.462;2023-05-07T05:47:07;19.17;;;17.47;;
75429;SDS011;64127;51.488;5.462;2023-05-07T05:49:39;18.17;;;16.67;;
75429;SDS011;64127;51.488;5.462;2023-05-07T05:52:11;19.13;;;17.43;;
75429;SDS011;64127;51.488;5.462;2023-05-07T05:54:45;18.03;;;16.63;;
75429;SDS011;64127;51.488;5.462;2023-05-07T05:57:17;19.03;;;17.40;;
75429;SDS011;64127;51.488;5.462;2023-05-07T05:59:49;18.80;;;17.10;;
75429;SDS011;64127;51.488;5.462;2023-05-07T06:02:21;17.83;;;16.33;;
75429;SDS011;64127;51.488;5.462;2023-05-07T06:04:53;18.27;;;16.60;;
75429;SDS011;64127;51.488;5.462;2023-05-07T06:07:26;18.23;;;16.73;;
75429;SDS011;64127;51.488;5.462;2023-05-07T06:09:58;17.70;;;16.30;;
75429;SDS011;64127;51.488;5.462;2023-05-07T06:12:30;18.23;;;16.63;;
75429;SDS011;64127;51.488;5.462;2023-05-07T06:15:02;18.20;;;16.60;;
75429;SDS011;64127;51.488;5.462;2023-05-07T06:17:35;17.60;;;16.07;;
75429;SDS011;64127;51.488;5.462;2023-05-07T06:20:07;18.00;;;16.40;;
75429;SDS011;64127;51.488;5.462;2023-05-07T06:22:40;17.33;;;15.83;;
75429;SDS011;64127;51.488;5.462;2023-05-07T06:25:12;16.90;;;15.53;;
75429;SDS011;64127;51.488;5.462;2023-05-07T06:27:44;17.23;;;15.87;;
75429;SDS011;64127;51.488;5.462;2023-05-07T06:30:16;18.20;;;16.57;;
75429;SDS011;64127;51.488;5.462;2023-05-07T06:32:48;17.10;;;15.40;;
75429;SDS011;64127;51.488;5.462;2023-05-07T06:35:20;17.20;;;15.70;;
75429;SDS011;64127;51.488;5.462;2023-05-07T06:37:52;17.43;;;15.73;;
75429;SDS011;64127;51.488;5.462;2023-05-07T06:40:24;15.70;;;14.47;;
75429;SDS011;64127;51.488;5.462;2023-05-07T06:42:56;16.33;;;14.93;;
75429;SDS011;64127;51.488;5.462;2023-05-07T06:45:28;16.97;;;15.33;;
75429;SDS011;64127;51.488;5.462;2023-05-07T06:48:00;16.90;;;15.53;;
75429;SDS011;64127;51.488;5.462;2023-05-07T06:50:32;17.07;;;15.47;;
75429;SDS011;64127;51.488;5.462;2023-05-07T06:53:04;16.57;;;14.97;;
75429;SDS011;64127;51.488;5.462;2023-05-07T06:55:36;15.40;;;14.10;;
75429;SDS011;64127;51.488;5.462;2023-05-07T06:58:09;16.30;;;14.70;;
75429;SDS011;64127;51.488;5.462;2023-05-07T07:00:41;15.77;;;14.43;;
75429;SDS011;64127;51.488;5.462;2023-05-07T07:03:13;16.17;;;14.77;;
75429;SDS011;64127;51.488;5.462;2023-05-07T07:05:45;16.63;;;15.07;;
75429;SDS011;64127;51.488;5.462;2023-05-07T07:08:17;16.03;;;14.53;;
75429;SDS011;64127;51.488;5.462;2023-05-07T07:10:49;16.27;;;14.83;;
75429;SDS011;64127;51.488;5.462;2023-05-07T07:13:21;15.77;;;14.37;;
75429;SDS011;64127;51.488;5.462;2023-05-07T07:15:53;15.60;;;14.20;;
75429;SDS011;64127;51.488;5.462;2023-05-07T07:18:25;16.03;;;14.50;;
75429;SDS011;64127;51.488;5.462;2023-05-07T07:20:57;15.63;;;14.20;;
75429;SDS011;64127;51.488;5.462;2023-05-07T07:23:29;16.20;;;14.80;;
75429;SDS011;64127;51.488;5.462;2023-05-07T07:26:01;15.53;;;14.17;;
75429;SDS011;64127;51.488;5.462;2023-05-07T07:28:33;15.17;;;13.93;;
75429;SDS011;64127;51.488;5.462;2023-05-07T07:31:05;14.90;;;13.60;;
75429;SDS011;64127;51.488;5.462;2023-05-07T07:33:37;16.03;;;14.63;;
75429;SDS011;64127;51.488;5.462;2023-05-07T07:36:09;15.00;;;13.73;;
75429;SDS011;64127;51.488;5.462;2023-05-07T07:38:41;14.87;;;13.37;;
75429;SDS011;64127;51.488;5.462;2023-05-07T07:41:13;15.33;;;13.93;;
75429;SDS011;64127;51.488;5.462;2023-05-07T07:43:45;14.47;;;13.20;;
75429;SDS011;64127;51.488;5.462;2023-05-07T07:46:20;15.23;;;13.83;;
75429;SDS011;64127;51.488;5.462;2023-05-07T07:48:52;15.03;;;13.67;;
75429;SDS011;64127;51.488;5.462;2023-05-07T07:51:25;13.90;;;12.70;;
75429;SDS011;64127;51.488;5.462;2023-05-07T07:53:57;13.93;;;12.83;;
75429;SDS011;64127;51.488;5.462;2023-05-07T07:56:29;15.40;;;13.83;;
75429;SDS011;64127;51.488;5.462;2023-05-07T07:59:04;13.93;;;12.73;;
75429;SDS011;64127;51.488;5.462;2023-05-07T08:01:36;14.83;;;13.23;;
75429;SDS011;64127;51.488;5.462;2023-05-07T08:04:08;13.80;;;12.57;;
75429;SDS011;64127;51.488;5.462;2023-05-07T08:06:41;14.23;;;12.93;;
75429;SDS011;64127;51.488;5.462;2023-05-07T08:09:13;13.90;;;12.80;;
75429;SDS011;64127;51.488;5.462;2023-05-07T08:11:45;14.50;;;13.20;;
75429;SDS011;64127;51.488;5.462;2023-05-07T08:14:17;13.40;;;12.30;;
75429;SDS011;64127;51.488;5.462;2023-05-07T08:16:49;14.13;;;12.93;;
75429;SDS011;64127;51.488;5.462;2023-05-07T08:19:21;13.83;;;12.63;;
75429;SDS011;64127;51.488;5.462;2023-05-07T08:21:57;14.10;;;12.80;;
75429;SDS011;64127;51.488;5.462;2023-05-07T08:24:29;13.77;;;12.57;;
75429;SDS011;64127;51.488;5.462;2023-05-07T08:27:01;14.03;;;12.83;;
75429;SDS011;64127;51.488;5.462;2023-05-07T08:29:33;13.93;;;12.73;;
75429;SDS011;64127;51.488;5.462;2023-05-07T08:32:05;14.57;;;13.37;;
75429;SDS011;64127;51.488;5.462;2023-05-07T08:34:37;13.87;;;12.67;;
75429;SDS011;64127;51.488;5.462;2023-05-07T08:37:10;13.60;;;12.50;;
75429;SDS011;64127;51.488;5.462;2023-05-07T08:39:42;14.77;;;13.47;;
75429;SDS011;64127;51.488;5.462;2023-05-07T08:42:15;14.47;;;13.30;;
75429;SDS011;64127;51.488;5.462;2023-05-07T08:44:49;15.67;;;14.27;;
75429;SDS011;64127;51.488;5.462;2023-05-07T08:47:26;14.80;;;13.60;;
75429;SDS011;64127;51.488;5.462;2023-05-07T08:50:06;14.47;;;13.27;;
75429;SDS011;64127;51.488;5.462;2023-05-07T08:52:42;14.10;;;12.87;;
75429;SDS011;64127;51.488;5.462;2023-05-07T08:55:14;15.30;;;14.07;;
75429;SDS011;64127;51.488;5.462;2023-05-07T08:57:46;15.57;;;14.00;;
75429;SDS011;64127;51.488;5.462;2023-05-07T09:00:19;15.13;;;13.73;;
75429;SDS011;64127;51.488;5.462;2023-05-07T09:02:52;14.23;;;13.00;;
75429;SDS011;64127;51.488;5.462;2023-05-07T09:05:25;14.83;;;13.57;;
75429;SDS011;64127;51.488;5.462;2023-05-07T09:08:01;15.57;;;14.10;;
75429;SDS011;64127;51.488;5.462;2023-05-07T09:10:34;14.47;;;13.33;;
75429;SDS011;64127;51.488;5.462;2023-05-07T09:13:06;14.77;;;13.53;;
75429;SDS011;64127;51.488;5.462;2023-05-07T09:15:38;14.90;;;13.60;;
75429;SDS011;64127;51.488;5.462;2023-05-07T09:18:10;15.00;;;13.60;;
75429;SDS011;64127;51.488;5.462;2023-05-07T09:20:43;14.13;;;12.83;;
75429;SDS011;64127;51.488;5.462;2023-05-07T09:23:15;15.20;;;13.80;;
75429;SDS011;64127;51.488;5.462;2023-05-07T09:25:47;15.57;;;14.17;;
75429;SDS011;64127;51.488;5.462;2023-05-07T09:28:19;14.70;;;13.33;;
75429;SDS011;64127;51.488;5.462;2023-05-07T09:30:51;15.37;;;13.97;;
75429;SDS011;64127;51.488;5.462;2023-05-07T09:33:26;15.33;;;14.03;;
75429;SDS011;64127;51.488;5.462;2023-05-07T09:36:01;15.23;;;13.93;;
75429;SDS011;64127;51.488;5.462;2023-05-07T09:38:36;15.30;;;14.03;;
75429;SDS011;64127;51.488;5.462;2023-05-07T09:41:09;15.70;;;14.50;;
75429;SDS011;64127;51.488;5.462;2023-05-07T09:43:43;15.17;;;13.77;;
75429;SDS011;64127;51.488;5.462;2023-05-07T09:46:15;16.10;;;14.70;;
75429;SDS011;64127;51.488;5.462;2023-05-07T09:48:52;15.63;;;14.23;;
75429;SDS011;64127;51.488;5.462;2023-05-07T09:51:29;14.83;;;13.60;;
75429;SDS011;64127;51.488;5.462;2023-05-07T09:54:19;15.60;;;14.10;;
75429;SDS011;64127;51.488;5.462;2023-05-07T09:56:51;15.20;;;13.70;;
75429;SDS011;64127;51.488;5.462;2023-05-07T09:59:24;14.73;;;13.43;;
75429;SDS011;64127;51.488;5.462;2023-05-07T10:02:00;14.83;;;13.63;;
75429;SDS011;64127;51.488;5.462;2023-05-07T10:04:35;14.23;;;13.03;;
75429;SDS011;64127;51.488;5.462;2023-05-07T10:07:08;14.70;;;13.43;;
75429;SDS011;64127;51.488;5.462;2023-05-07T10:09:40;12.83;;;11.73;;
75429;SDS011;64127;51.488;5.462;2023-05-07T10:12:15;13.10;;;11.90;;
75429;SDS011;64127;51.488;5.462;2023-05-07T10:14:49;13.20;;;12.10;;
75429;SDS011;64127;51.488;5.462;2023-05-07T10:17:26;12.93;;;11.93;;
75429;SDS011;64127;51.488;5.462;2023-05-07T10:19:58;13.43;;;12.23;;
75429;SDS011;64127;51.488;5.462;2023-05-07T10:22:33;13.47;;;12.30;;
75429;SDS011;64127;51.488;5.462;2023-05-07T10:25:22;13.07;;;12.00;;
75429;SDS011;64127;51.488;5.462;2023-05-07T10:28:03;14.10;;;12.87;;
75429;SDS011;64127;51.488;5.462;2023-05-07T10:33:43;13.27;;;12.10;;
75429;SDS011;64127;51.488;5.462;2023-05-07T10:36:19;13.30;;;12.10;;
75429;SDS011;64127;51.488;5.462;2023-05-07T10:38:53;13.10;;;12.10;;
75429;SDS011;64127;51.488;5.462;2023-05-07T10:41:26;13.10;;;11.77;;
75429;SDS011;64127;51.488;5.462;2023-05-07T10:43:58;12.20;;;11.20;;
75429;SDS011;64127;51.488;5.462;2023-05-07T10:46:32;12.80;;;11.80;;
75429;SDS011;64127;51.488;5.462;2023-05-07T10:49:06;12.20;;;11.17;;
75429;SDS011;64127;51.488;5.462;2023-05-07T10:51:39;12.20;;;11.10;;
75429;SDS011;64127;51.488;5.462;2023-05-07T10:56:43;12.53;;;11.10;;
75429;SDS011;64127;51.488;5.462;2023-05-07T11:02:02;11.50;;;10.50;;
75429;SDS011;64127;51.488;5.462;2023-05-07T11:04:37;10.17;;;9.27;;
75429;SDS011;64127;51.488;5.462;2023-05-07T11:10:01;9.53;;;8.83;;
75429;SDS011;64127;51.488;5.462;2023-05-07T11:15:11;9.23;;;8.30;;
75429;SDS011;64127;51.488;5.462;2023-05-07T11:26:07;9.47;;;8.77;;
75429;SDS011;64127;51.488;5.462;2023-05-07T11:28:42;10.00;;;9.00;;
75429;SDS011;64127;51.488;5.462;2023-05-07T11:31:15;10.43;;;9.37;;
75429;SDS011;64127;51.488;5.462;2023-05-07T11:33:55;10.23;;;9.43;;
75429;SDS011;64127;51.488;5.462;2023-05-07T11:36:30;9.50;;;8.60;;
75429;SDS011;64127;51.488;5.462;2023-05-07T11:39:04;9.77;;;8.97;;
75429;SDS011;64127;51.488;5.462;2023-05-07T11:41:36;8.83;;;7.97;;
75429;SDS011;64127;51.488;5.462;2023-05-07T11:44:09;8.33;;;7.63;;
75429;SDS011;64127;51.488;5.462;2023-05-07T11:46:42;8.40;;;7.60;;
75429;SDS011;64127;51.488;5.462;2023-05-07T11:49:18;7.87;;;7.10;;
75429;SDS011;64127;51.488;5.462;2023-05-07T11:51:50;8.27;;;6.80;;
75429;SDS011;64127;51.488;5.462;2023-05-07T11:54:22;6.70;;;6.10;;
75429;SDS011;64127;51.488;5.462;2023-05-07T11:56:54;6.83;;;6.23;;
75429;SDS011;64127;51.488;5.462;2023-05-07T11:59:27;7.47;;;6.77;;
75429;SDS011;64127;51.488;5.462;2023-05-07T12:01:59;10.30;;;7.10;;
75429;SDS011;64127;51.488;5.462;2023-05-07T12:04:31;8.23;;;7.53;;
75429;SDS011;64127;51.488;5.462;2023-05-07T12:07:03;8.30;;;7.50;;
75429;SDS011;64127;51.488;5.462;2023-05-07T12:09:35;10.73;;;8.50;;
75429;SDS011;64127;51.488;5.462;2023-05-07T12:12:08;8.80;;;8.00;;
75429;SDS011;64127;51.488;5.462;2023-05-07T12:14:41;8.13;;;7.43;;
75429;SDS011;64127;51.488;5.462;2023-05-07T12:17:14;8.60;;;7.80;;
75429;SDS011;64127;51.488;5.462;2023-05-07T12:19:48;10.37;;;7.90;;
75429;SDS011;64127;51.488;5.462;2023-05-07T12:22:20;8.63;;;7.50;;
75429;SDS011;64127;51.488;5.462;2023-05-07T12:24:57;8.23;;;7.03;;
75429;SDS011;64127;51.488;5.462;2023-05-07T12:27:30;8.97;;;7.17;;
75429;SDS011;64127;51.488;5.462;2023-05-07T12:30:02;16.70;;;7.43;;
75429;SDS011;64127;51.488;5.462;2023-05-07T12:32:34;7.50;;;6.90;;
75429;SDS011;64127;51.488;5.462;2023-05-07T12:35:08;4.80;;;4.33;;
75429;SDS011;64127;51.488;5.462;2023-05-07T12:37:40;2.83;;;2.53;;
75429;SDS011;64127;51.488;5.462;2023-05-07T12:40:13;2.23;;;2.00;;
75429;SDS011;64127;51.488;5.462;2023-05-07T12:42:45;3.70;;;1.83;;
75429;SDS011;64127;51.488;5.462;2023-05-07T12:45:17;2.53;;;1.70;;
75429;SDS011;64127;51.488;5.462;2023-05-07T12:47:49;3.90;;;1.50;;
75429;SDS011;64127;51.488;5.462;2023-05-07T12:50:22;5.57;;;2.00;;
75429;SDS011;64127;51.488;5.462;2023-05-07T12:52:54;5.90;;;2.17;;
75429;SDS011;64127;51.488;5.462;2023-05-07T12:55:26;9.13;;;2.40;;
75429;SDS011;64127;51.488;5.462;2023-05-07T12:58:05;4.87;;;2.30;;
75429;SDS011;64127;51.488;5.462;2023-05-07T13:00:37;9.67;;;3.27;;
75429;SDS011;64127;51.488;5.462;2023-05-07T13:03:10;7.97;;;2.63;;
75429;SDS011;64127;51.488;5.462;2023-05-07T13:05:43;19.00;;;6.00;;
75429;SDS011;64127;51.488;5.462;2023-05-07T13:08:23;11.73;;;3.60;;
75429;SDS011;64127;51.488;5.462;2023-05-07T13:10:57;6.77;;;2.83;;
75429;SDS011;64127;51.488;5.462;2023-05-07T13:13:35;13.07;;;3.50;;
75429;SDS011;64127;51.488;5.462;2023-05-07T13:16:10;10.50;;;2.50;;
75429;SDS011;64127;51.488;5.462;2023-05-07T13:18:43;12.70;;;3.00;;
75429;SDS011;64127;51.488;5.462;2023-05-07T13:21:17;6.87;;;2.53;;
75429;SDS011;64127;51.488;5.462;2023-05-07T13:23:49;6.43;;;2.27;;
75429;SDS011;64127;51.488;5.462;2023-05-07T13:26:21;3.73;;;2.10;;
75429;SDS011;64127;51.488;5.462;2023-05-07T13:28:57;6.07;;;2.10;;
75429;SDS011;64127;51.488;5.462;2023-05-07T13:31:29;4.77;;;1.90;;
75429;SDS011;64127;51.488;5.462;2023-05-07T13:34:01;2.07;;;1.53;;
75429;SDS011;64127;51.488;5.462;2023-05-07T13:36:33;2.30;;;1.37;;
75429;SDS011;64127;51.488;5.462;2023-05-07T13:39:08;7.03;;;1.80;;
75429;SDS011;64127;51.488;5.462;2023-05-07T13:41:40;4.80;;;1.97;;
75429;SDS011;64127;51.488;5.462;2023-05-07T13:44:12;2.70;;;1.70;;
75429;SDS011;64127;51.488;5.462;2023-05-07T13:46:44;4.67;;;1.70;;
75429;SDS011;64127;51.488;5.462;2023-05-07T13:49:16;3.07;;;1.70;;
75429;SDS011;64127;51.488;5.462;2023-05-07T13:51:48;2.43;;;1.60;;
75429;SDS011;64127;51.488;5.462;2023-05-07T13:54:20;4.33;;;2.00;;
75429;SDS011;64127;51.488;5.462;2023-05-07T13:56:52;3.10;;;1.90;;
75429;SDS011;64127;51.488;5.462;2023-05-07T13:59:24;3.03;;;1.80;;
75429;SDS011;64127;51.488;5.462;2023-05-07T14:01:56;3.20;;;2.30;;
75429;SDS011;64127;51.488;5.462;2023-05-07T14:04:28;4.07;;;2.50;;
75429;SDS011;64127;51.488;5.462;2023-05-07T14:07:02;4.47;;;2.88;;
75429;SDS011;64127;51.488;5.462;2023-05-07T14:09:34;3.90;;;3.37;;
75429;SDS011;64127;51.488;5.462;2023-05-07T14:12:07;4.30;;;3.90;;
75429;SDS011;64127;51.488;5.462;2023-05-07T14:14:39;3.93;;;3.63;;
75429;SDS011;64127;51.488;5.462;2023-05-07T14:17:11;4.87;;;3.60;;
75429;SDS011;64127;51.488;5.462;2023-05-07T14:19:43;3.40;;;3.10;;
75429;SDS011;64127;51.488;5.462;2023-05-07T14:22:15;3.40;;;3.03;;
75429;SDS011;64127;51.488;5.462;2023-05-07T14:24:47;3.30;;;3.00;;
75429;SDS011;64127;51.488;5.462;2023-05-07T14:27:36;4.10;;;3.33;;
75429;SDS011;64127;51.488;5.462;2023-05-07T14:30:08;3.73;;;3.10;;
75429;SDS011;64127;51.488;5.462;2023-05-07T14:32:41;4.00;;;3.30;;
75429;SDS011;64127;51.488;5.462;2023-05-07T14:35:13;3.57;;;3.23;;
75429;SDS011;64127;51.488;5.462;2023-05-07T14:37:45;3.13;;;2.83;;
75429;SDS011;64127;51.488;5.462;2023-05-07T14:40:17;2.63;;;2.43;;
75429;SDS011;64127;51.488;5.462;2023-05-07T14:42:49;2.87;;;2.30;;
75429;SDS011;64127;51.488;5.462;2023-05-07T14:45:21;3.33;;;2.60;;
75429;SDS011;64127;51.488;5.462;2023-05-07T14:47:53;5.83;;;2.80;;
75429;SDS011;64127;51.488;5.462;2023-05-07T14:50:25;2.93;;;2.70;;
75429;SDS011;64127;51.488;5.462;2023-05-07T14:52:57;4.33;;;2.80;;
75429;SDS011;64127;51.488;5.462;2023-05-07T14:55:29;4.03;;;2.73;;
75429;SDS011;64127;51.488;5.462;2023-05-07T14:58:04;3.00;;;2.70;;
75429;SDS011;64127;51.488;5.462;2023-05-07T15:00:36;3.17;;;2.80;;
75429;SDS011;64127;51.488;5.462;2023-05-07T15:03:09;4.30;;;2.80;;
75429;SDS011;64127;51.488;5.462;2023-05-07T15:05:42;3.57;;;3.20;;
75429;SDS011;64127;51.488;5.462;2023-05-07T15:08:14;2.93;;;2.73;;
75429;SDS011;64127;51.488;5.462;2023-05-07T15:10:46;3.30;;;3.00;;
75429;SDS011;64127;51.488;5.462;2023-05-07T15:13:18;3.63;;;3.33;;
75429;SDS011;64127;51.488;5.462;2023-05-07T15:15:50;3.27;;;3.07;;
75429;SDS011;64127;51.488;5.462;2023-05-07T15:18:22;3.63;;;2.90;;
75429;SDS011;64127;51.488;5.462;2023-05-07T15:20:55;3.50;;;3.10;;
75429;SDS011;64127;51.488;5.462;2023-05-07T15:23:28;4.83;;;4.00;;
75429;SDS011;64127;51.488;5.462;2023-05-07T15:26:00;3.70;;;3.40;;
75429;SDS011;64127;51.488;5.462;2023-05-07T15:28:35;4.77;;;3.70;;